Faisalabad Weather



Faisalabad's Current Weather

Temprature 30.75o clear sky

clear sky

Rain: 0 %

Min Temprature30.75o
Max Temprature30.75o
Humidity53
Wind Speed3.15 m/h
Sun Rise05:37:47
Sun Set18:43:28
Current Time: 23-Aug-2019 05:10:12
Lat/Lon: 31.42, 73.09




Faisalabad's Geo Location



Faisalabad's Weather Forecast

Time Overall Temp Min Temp Max Temp Humidity Wind Speed Rain
23-Aug-2019 (Fri)
08:00:00 clear sky 33.800 33.797 33.800 42 3.17 m/h 0 %
11:00:00 clear sky 39.050 39.050 39.050 26 2.8 m/h 0 %
14:00:00 clear sky 42.430 42.430 42.431 18 1.45 m/h 0 %
17:00:00 scattered clouds 41.610 41.610 41.611 17 0.71 m/h 0 %
20:00:00 clear sky 37.750 37.750 37.750 21 3.25 m/h 0 %
23:00:00 clear sky 35.042 35.042 35.042 33 6.09 m/h 0 %
24-Aug-2019 (Sat)
02:00:00 clear sky 32.931 32.931 32.931 39 4.76 m/h 0 %
05:00:00 clear sky 31.655 31.655 31.655 39 3.07 m/h 0 %
08:00:00 clear sky 35.157 35.157 35.157 28 3.37 m/h 0 %
11:00:00 clear sky 40.469 40.469 40.469 20 2.02 m/h 0 %
14:00:00 clear sky 44.169 44.169 44.169 14 0.76 m/h 0 %
17:00:00 clear sky 43.223 43.223 43.223 14 1 m/h 0 %
20:00:00 clear sky 38.550 38.550 38.550 20 0.74 m/h 0 %
23:00:00 clear sky 36.069 36.069 36.069 25 3.33 m/h 0 %
25-Aug-2019 (Sun)
02:00:00 clear sky 34.131 34.131 34.131 27 3.24 m/h 0 %
05:00:00 clear sky 32.357 32.357 32.357 33 3.19 m/h 0 %
08:00:00 clear sky 35.514 35.514 35.514 26 3.5 m/h 0 %
11:00:00 clear sky 40.716 40.716 40.716 17 2.41 m/h 0 %
14:00:00 clear sky 45.050 45.050 45.050 13 0.19 m/h 0 %
17:00:00 clear sky 44.150 44.150 44.150 12 2.58 m/h 0 %
20:00:00 clear sky 38.881 38.881 38.881 18 3.4 m/h 0 %
23:00:00 clear sky 34.911 34.911 34.911 43 7.55 m/h 0 %
26-Aug-2019 (Mon)
02:00:00 clear sky 31.965 31.965 31.965 55 6.78 m/h 0 %
05:00:00 clear sky 30.150 30.150 30.150 63 4.19 m/h 0 %
08:00:00 clear sky 31.567 31.567 31.567 57 4.68 m/h 0 %
11:00:00 few clouds 38.972 38.972 38.972 30 4.79 m/h 0 %
14:00:00 scattered clouds 42.184 42.184 42.184 22 3.79 m/h 0 %
17:00:00 scattered clouds 42.520 42.520 42.520 19 2.32 m/h 0 %
20:00:00 overcast clouds 38.072 38.072 38.072 29 4.81 m/h 0 %
23:00:00 broken clouds 34.814 34.814 34.814 44 4.63 m/h 0 %
27-Aug-2019 (Tue)
02:00:00 few clouds 32.916 32.916 32.916 50 3.77 m/h 0 %
05:00:00 broken clouds 32.150 32.150 32.150 50 3.19 m/h 0 %
08:00:00 overcast clouds 34.835 34.835 34.835 43 2.63 m/h 0 %
11:00:00 broken clouds 39.836 39.836 39.836 30 2.16 m/h 0 %
14:00:00 broken clouds 40.136 40.136 40.136 28 1.9 m/h 0 %
17:00:00 overcast clouds 40.465 40.465 40.465 27 0.59 m/h 0 %
20:00:00 scattered clouds 37.450 37.450 37.450 33 2.76 m/h 0 %
23:00:00 scattered clouds 35.150 35.150 35.150 38 4.39 m/h 0 %
28-Aug-2019 (Wed)
02:00:00 clear sky 33.357 33.357 33.357 49 4.05 m/h 0 %
05:00:00 clear sky 32.272 32.272 32.272 55 2.56 m/h 0 %


Faisalabad's Tourist Spots

Parks and Zoos in Faisalabad

Famous Cities (61)